x

Isle Of Shoals, Nh (iosn3) Weather Station

5:00 - Sun 26th Apr 2015 All times are EDT. -4 hours from GMT.

  • Wind
    6mph, 7mph gusts
  • Ar Temp 42°f
  • Sea Pressure 1003.6mb
  • Isle Of Shoals, Nh
  • Isle Of Shoals, Nh

More Historic Weather Station data

Upgrade to MSW Pro to gain access to the past 30 days of data for over 8000 Wavebouys and Weather Stations around the globe.

Join Pro

Comparision Forecast

View Surf forecast
   
Dom 04/26 5:00 6 7 mph 1003.6mb 42f
4:00 8 10 mph 1003.6mb 42f
3:00 9 10 mph 1004mb 42f
2:00 8
mph
1004.7mb 42f
1:00 10
mph
1005.4mb 42f
12:00 9
mph
1005.6mb 42f
Sáb 04/25 11:00 9 10 mph 1005.8mb 43f
10:00 11 13 mph 1005.9mb 44f
9:00 15 16 mph 1006mb 46f
8:00 17 18 mph 1005.6mb 47f
7:00 18 20 mph 1004.8mb 48f
6:00 21
mph
1004.5mb 48f
5:00 25 26 mph 1004.1mb 47f
4:00 24 25 mph 1004.1mb 48f
3:00 22 23 mph 1004mb 49f
2:00 17 18 mph 1004.4mb 48f
1:00 8 9 mph 1004.8mb 46f
12:00 17 20 mph 1005.1mb 44f
11:00 16 18 mph 1005.8mb 41f
10:00 20 21 mph 1005.9mb 40f
9:00 18 21 mph 1005.8mb 40f
8:00 18 21 mph 1006.2mb 38f
7:00 18 22 mph 1006.4mb 37f
6:00 18 21 mph 1006.2mb 37f
5:00 17 20 mph 1005.9mb 37f
4:00 16 18 mph 1005.8mb 37f
3:00 16 20 mph 1005.9mb 38f
2:00 18 23 mph 1005.9mb 38f
1:00 18 21 mph 1006.5mb 38f
12:00 18 25 mph 1007mb 39f
Sex 04/24 11:00 26 30 mph 1006.8mb 39f
10:00 22 25 mph 1007.3mb 40f
9:00 29 31 mph 1006.9mb 40f
8:00 31 39 mph 1006.2mb 42f
7:00 28 31 mph 1005.6mb 43f
6:00 29 31 mph 1004.7mb 45f
5:00 22 25 mph 1004.3mb 45f
4:00 20 22 mph 1003.8mb 45f
3:00 17 18 mph 1003.5mb 45f
2:00 22 25 mph 1003.5mb 45f
1:00 24 26 mph 1003.7mb 44f
12:00 23 28 mph 1004.1mb 43f
11:00 24 26 mph 1004.3mb 42f
10:00 30 32 mph 1004.1mb 41f
9:00 32 36 mph 1003.9mb 40f
8:00 28 32 mph 1004.2mb 40f
7:00 26 31 mph 1003.7mb 39f
6:00 25 28 mph 1003.4mb 38f
5:00 22 25 mph 1003.4mb 37f
4:00 21 23 mph 1003.4mb 37f
3:00 22 24 mph 1002.9mb 36f
2:00 26 30 mph 1002.6mb 37f
1:00 25 28 mph 1003.2mb 38f
12:00 20 22 mph 1003.3mb 38f
Qui 04/23 11:00 20 23 mph 1003.2mb 40f
10:00 20 22 mph 1003.3mb 40f
9:00 22 24 mph 1003mb 41f
8:00 30 32 mph 1002mb 42f
7:00 21 22 mph 1001.6mb 45f
6:00 21 23 mph 1001.1mb 47f
5:00 25 26 mph 1000.7mb 46f
4:00 16 18 mph 1000.7mb 46f
3:00 11 13 mph 1000.8mb 44f
2:00 16 17 mph 1000.8mb 44f
1:00 14 15 mph 1000.7mb 45f
12:00 21 24 mph 1000.8mb 44f
11:00 13 14 mph 1000.8mb 44f
10:00 16 18 mph 1000.9mb 44f
9:00 20 22 mph 1000.9mb 43f
8:00 22 25 mph 1000.8mb 42f
7:00 21 23 mph 1000.6mb 41f
6:00 18 20 mph 1000.1mb 41f
5:00 24 25 mph 1000mb 42f
4:00 18 20 mph 999.3mb 42f
3:00 31 34 mph 998.6mb 43f
2:00 25 26 mph 997.9mb 45f
1:00 22
mph
997.5mb 47f
12:00 26 28 mph 998.1mb 49f
Qua 04/22 11:00 29 31 mph 998.4mb 50f
10:00 29 30 mph 999.6mb 51f
9:00 25 26 mph 1000.1mb 50f
8:00 32 33 mph 1000.8mb 50f
7:00 31 32 mph 1001mb 50f
6:00 29 32 mph 1001.8mb 50f
5:00 30 32 mph 1001.8mb 49f
4:00 34 37 mph 1001.6mb 51f
3:00 28 31 mph 1002.4mb 48f
2:00 28 29 mph 1003.5mb 49f
1:00 24 25 mph 1004.7mb 47f
12:00 21 22 mph 1005.8mb 46f
11:00 22 23 mph 1006.6mb 47f